Time;durP1;ratioP1;P1;durP2;ratioP2;P2;SDS_P1;SDS_P2;PMS_P1;PMS_P2;Temp;Humidity;BMP_temperature;BMP_pressure;BME280_temperature;BME280_humidity;BME280_pressure;Samples;Min_cycle;Max_cycle;Signal;HPM_P1;HPM_P2
2023/07/19 00:00:03;;;;;;;22.98;20.95;;;27.70;99.90;;;;;;4924999;29;20038;-88
2023/07/19 00:02:40;;;;;;;22.70;20.30;;;27.70;99.90;;;;;;4942827;29;20047;-87
2023/07/19 00:05:09;;;;;;;23.05;20.80;;;27.70;99.90;;;;;;4952081;28;20066;-88
2023/07/19 00:07:35;;;;;;;25.75;21.88;;;27.70;99.90;;;;;;4940136;28;20077;-88
2023/07/19 00:10:03;;;;;;;22.02;20.30;;;27.60;99.90;;;;;;4943917;28;20146;-87
2023/07/19 00:15:26;;;;;;;23.13;20.70;;;27.60;99.90;;;;;;4957115;28;20062;-93
2023/07/19 00:17:53;;;;;;;22.95;20.73;;;27.70;99.90;;;;;;4940468;29;20039;-90
2023/07/19 00:20:19;;;;;;;23.65;21.33;;;27.70;99.90;;;;;;4956283;29;20035;-89
2023/07/19 00:22:46;;;;;;;23.90;21.80;;;27.60;99.90;;;;;;4956585;29;20066;-90
2023/07/19 00:25:12;;;;;;;22.75;20.75;;;27.60;99.90;;;;;;4940438;29;20058;-91
2023/07/19 00:27:39;;;;;;;23.90;21.60;;;27.70;99.90;;;;;;4940323;29;20094;-90
2023/07/19 00:30:06;;;;;;;23.92;21.30;;;27.60;99.90;;;;;;4952041;29;20043;-91
2023/07/19 00:32:32;;;;;;;23.52;21.35;;;27.60;99.90;;;;;;4972283;28;20046;-90
2023/07/19 00:35:00;;;;;;;23.75;21.33;;;27.60;99.90;;;;;;4972461;28;20133;-90
2023/07/19 00:37:26;;;;;;;22.77;20.90;;;27.50;99.90;;;;;;4972353;28;20419;-91
2023/07/19 00:39:53;;;;;;;23.27;21.15;;;27.50;99.90;;;;;;4972192;28;20114;-91
2023/07/19 00:42:20;;;;;;;23.92;21.80;;;27.50;99.90;;;;;;4972032;28;20028;-90
2023/07/19 00:44:49;;;;;;;23.40;21.52;;;27.60;99.90;;;;;;4959503;28;20046;-89
2023/07/19 00:47:16;;;;;;;24.95;21.30;;;27.60;99.90;;;;;;4947943;29;20476;-89
2023/07/19 00:49:44;;;;;;;23.52;21.52;;;27.60;99.90;;;;;;4955777;28;20047;-91
2023/07/19 00:52:11;;;;;;;24.05;21.98;;;27.60;99.90;;;;;;4955693;28;20032;-92
2023/07/19 00:54:41;;;;;;;22.95;21.10;;;27.60;99.90;;;;;;4956092;28;20043;-93
2023/07/19 00:57:08;;;;;;;23.20;21.25;;;27.60;99.90;;;;;;4955198;28;20035;-91
2023/07/19 00:59:35;;;;;;;22.88;20.85;;;27.60;99.90;;;;;;4955783;28;20090;-93
2023/07/19 01:02:01;;;;;;;23.50;21.10;;;27.60;99.90;;;;;;4955950;28;20044;-91
2023/07/19 01:04:29;;;;;;;24.48;22.17;;;27.60;99.90;;;;;;4940092;29;20404;-91
2023/07/19 01:06:56;;;;;;;22.80;21.10;;;27.60;99.90;;;;;;4955916;28;20122;-94
2023/07/19 01:09:24;;;;;;;22.83;21.05;;;27.60;99.90;;;;;;4955666;29;20059;-92
2023/07/19 01:11:51;;;;;;;23.80;21.50;;;27.70;99.90;;;;;;4955582;29;20031;-91
2023/07/19 01:14:19;;;;;;;23.92;21.88;;;27.70;99.90;;;;;;4950859;28;20051;-90
2023/07/19 01:16:45;;;;;;;23.50;21.48;;;27.70;99.90;;;;;;4974846;28;20039;-91
2023/07/19 01:19:15;;;;;;;24.35;22.35;;;27.70;99.90;;;;;;4968864;28;20466;-91
2023/07/19 01:21:41;;;;;;;23.52;21.35;;;27.70;99.90;;;;;;4939544;29;20452;-92
2023/07/19 01:24:08;;;;;;;23.33;21.50;;;27.60;99.90;;;;;;4946671;29;20035;-91
2023/07/19 01:26:34;;;;;;;23.52;21.45;;;27.60;99.90;;;;;;4939421;29;20039;-91
2023/07/19 01:29:00;;;;;;;24.02;21.65;;;27.60;99.90;;;;;;4939411;29;20051;-92
2023/07/19 01:31:26;;;;;;;23.88;21.88;;;27.60;99.90;;;;;;4939392;29;20425;-91
2023/07/19 01:33:54;;;;;;;23.60;21.75;;;27.60;99.90;;;;;;4939442;29;20047;-90
2023/07/19 01:36:25;;;;;;;22.45;20.95;;;27.60;99.90;;;;;;4939391;29;20031;-92
2023/07/19 01:38:52;;;;;;;23.75;21.88;;;27.60;99.90;;;;;;4939248;29;20515;-91
2023/07/19 01:41:19;;;;;;;23.98;21.83;;;27.60;99.90;;;;;;4939429;29;20035;-90
2023/07/19 01:43:46;;;;;;;23.92;21.88;;;27.50;99.90;;;;;;4943617;29;20035;-90
2023/07/19 01:46:12;;;;;;;23.02;21.23;;;27.50;99.90;;;;;;4939243;29;20035;-92
2023/07/19 01:48:39;;;;;;;24.10;22.02;;;27.50;99.90;;;;;;4939196;29;20044;-91
2023/07/19 01:51:05;;;;;;;23.92;21.20;;;27.50;99.90;;;;;;4939066;29;20031;-90
2023/07/19 01:53:32;;;;;;;22.95;21.13;;;27.50;99.90;;;;;;4939036;29;20047;-91
2023/07/19 01:55:59;;;;;;;23.30;21.40;;;27.60;99.90;;;;;;4954895;29;20037;-90
2023/07/19 01:58:25;;;;;;;23.85;21.65;;;27.60;99.90;;;;;;4955154;29;20090;-90
2023/07/19 02:00:55;;;;;;;23.55;21.27;;;27.70;99.90;;;;;;4955181;29;20126;-90
2023/07/19 02:03:21;;;;;;;23.02;21.13;;;27.70;99.90;;;;;;4955039;29;20497;-91
2023/07/19 02:05:58;;;;;;;23.52;21.33;;;27.70;99.90;;;;;;4954718;29;20066;-90
2023/07/19 02:08:25;;;;;;;22.85;20.70;;;27.70;99.90;;;;;;4957804;28;20059;-90
2023/07/19 02:10:52;;;;;;;22.55;20.83;;;27.70;99.90;;;;;;4942931;29;20067;-91
2023/07/19 02:13:18;;;;;;;23.42;21.10;;;27.70;99.90;;;;;;4949324;28;20391;-91
2023/07/19 02:15:47;;;;;;;22.80;21.17;;;27.70;99.90;;;;;;4997572;28;20496;-90
2023/07/19 02:18:14;;;;;;;23.38;21.38;;;27.70;99.90;;;;;;4999468;28;20045;-91
2023/07/19 02:20:48;;;;;;;23.45;21.20;;;27.60;99.90;;;;;;4990931;28;20169;-91
2023/07/19 02:23:19;;;;;;;22.95;20.80;;;27.60;99.90;;;;;;4981206;28;20061;-93
2023/07/19 02:25:51;;;;;;;22.48;20.50;;;27.60;99.90;;;;;;4997236;28;20551;-90
2023/07/19 02:28:18;;;;;;;22.52;20.92;;;27.60;99.90;;;;;;4977685;28;20142;-91
2023/07/19 02:30:45;;;;;;;22.38;20.83;;;27.70;99.90;;;;;;4961700;28;20039;-90
2023/07/19 02:33:13;;;;;;;22.98;21.00;;;27.70;99.90;;;;;;4961540;28;20038;-92
2023/07/19 02:35:40;;;;;;;25.17;21.90;;;27.60;99.90;;;;;;4973927;28;20369;-90
2023/07/19 02:38:07;;;;;;;24.10;22.02;;;27.50;99.90;;;;;;4981046;28;20038;-93
2023/07/19 02:40:33;;;;;;;23.50;21.17;;;27.50;99.90;;;;;;4980919;28;20034;-90
2023/07/19 02:43:00;;;;;;;23.58;21.50;;;27.50;99.90;;;;;;4980860;28;20045;-91
2023/07/19 02:45:26;;;;;;;23.52;21.20;;;27.40;99.90;;;;;;4980681;28;20039;-92
2023/07/19 02:47:52;;;;;;;23.30;21.38;;;27.30;99.90;;;;;;4992251;28;20058;-90
2023/07/19 02:50:19;;;;;;;23.17;20.92;;;27.30;99.90;;;;;;4980801;28;20101;-92
2023/07/19 02:52:47;;;;;;;22.95;21.00;;;27.20;99.90;;;;;;4977328;28;20030;-90
2023/07/19 02:55:14;;;;;;;24.60;22.33;;;27.20;99.90;;;;;;4977517;28;20039;-90
2023/07/19 02:57:40;;;;;;;22.70;20.90;;;27.10;99.90;;;;;;4980446;28;20030;-90
2023/07/19 03:00:07;;;;;;;23.50;21.17;;;27.10;99.90;;;;;;4980506;28;20030;-90
2023/07/19 03:02:34;;;;;;;23.30;21.25;;;27.10;99.90;;;;;;4980560;28;20049;-90
2023/07/19 03:05:00;;;;;;;23.77;21.80;;;27.20;99.90;;;;;;4980478;28;20065;-92
2023/07/19 03:07:27;;;;;;;24.52;21.90;;;27.20;99.90;;;;;;4980402;28;20083;-92
2023/07/19 03:09:53;;;;;;;23.58;21.67;;;27.20;99.90;;;;;;4980277;28;20050;-90
2023/07/19 03:12:19;;;;;;;24.92;22.38;;;27.10;99.90;;;;;;4980477;28;20030;-91
2023/07/19 03:14:46;;;;;;;23.67;21.63;;;27.10;99.90;;;;;;4960847;28;20051;-90
2023/07/19 03:17:12;;;;;;;23.98;22.00;;;27.10;99.90;;;;;;4960834;28;20126;-92
2023/07/19 03:19:39;;;;;;;24.15;22.23;;;27.10;99.90;;;;;;4960112;28;20138;-91
2023/07/19 03:22:06;;;;;;;25.73;23.30;;;27.10;99.90;;;;;;4960897;28;20039;-91
2023/07/19 03:24:32;;;;;;;24.83;22.63;;;27.10;99.90;;;;;;4960681;28;20042;-90
2023/07/19 03:26:58;;;;;;;24.52;22.33;;;27.10;99.90;;;;;;4960777;28;20469;-91
2023/07/19 03:29:25;;;;;;;24.70;22.25;;;27.10;99.90;;;;;;4957574;28;20086;-91
2023/07/19 03:31:51;;;;;;;24.73;22.45;;;27.10;99.90;;;;;;4956546;28;20035;-90
2023/07/19 03:34:18;;;;;;;23.92;22.05;;;27.00;99.90;;;;;;4957364;28;20039;-90
2023/07/19 03:36:44;;;;;;;24.70;22.45;;;27.00;99.90;;;;;;4957354;28;20035;-92
2023/07/19 03:39:11;;;;;;;24.83;22.45;;;27.10;99.90;;;;;;4957414;28;20382;-90
2023/07/19 03:41:38;;;;;;;24.38;22.13;;;27.10;99.90;;;;;;4957154;29;20036;-91
2023/07/19 03:44:05;;;;;;;24.38;21.92;;;27.10;99.90;;;;;;4957352;28;20035;-92
2023/07/19 03:46:31;;;;;;;24.58;22.55;;;27.10;99.90;;;;;;4957137;29;20045;-90
2023/07/19 03:48:59;;;;;;;24.48;21.33;;;27.10;99.90;;;;;;4957438;28;20054;-91
2023/07/19 03:51:25;;;;;;;23.27;21.58;;;27.10;99.90;;;;;;4960183;28;20031;-89
2023/07/19 03:53:53;;;;;;;23.25;21.55;;;27.10;99.90;;;;;;4960533;28;20035;-90
2023/07/19 03:56:21;;;;;;;22.58;20.77;;;27.10;99.90;;;;;;4957241;28;20423;-91
2023/07/19 03:58:49;;;;;;;23.90;21.73;;;27.10;99.90;;;;;;4960112;28;20043;-91
2023/07/19 04:01:16;;;;;;;30.48;22.73;;;27.20;99.90;;;;;;4976104;28;20038;-91
2023/07/19 04:03:43;;;;;;;23.80;21.85;;;27.20;99.90;;;;;;4960185;28;20392;-90
2023/07/19 04:06:09;;;;;;;25.25;21.25;;;27.20;99.90;;;;;;4960041;28;20488;-92
2023/07/19 04:08:36;;;;;;;23.10;21.25;;;27.10;99.90;;;;;;4956830;29;20054;-90
2023/07/19 04:11:02;;;;;;;22.67;21.00;;;27.20;99.90;;;;;;4956668;28;20089;-91
2023/07/19 04:13:29;;;;;;;27.35;21.90;;;27.20;99.90;;;;;;4957740;28;20055;-92
2023/07/19 04:15:57;;;;;;;23.38;21.50;;;27.30;99.90;;;;;;4972838;28;20039;-90
2023/07/19 04:18:24;;;;;;;24.08;21.77;;;27.40;99.90;;;;;;4972524;28;20039;-91
2023/07/19 04:20:58;;;;;;;23.92;21.98;;;27.40;99.90;;;;;;4961509;28;20027;-91
2023/07/19 04:23:27;;;;;;;23.40;21.50;;;27.50;99.90;;;;;;4972830;28;20043;-91
2023/07/19 04:25:53;;;;;;;23.60;21.83;;;27.50;99.90;;;;;;4972658;28;20106;-91
2023/07/19 04:28:21;;;;;;;25.77;23.15;;;27.50;99.90;;;;;;4972306;28;20051;-90
2023/07/19 04:30:47;;;;;;;24.25;22.20;;;27.70;99.90;;;;;;4971196;28;20032;-91
2023/07/19 04:33:15;;;;;;;25.67;23.02;;;27.90;99.90;;;;;;4956267;29;20039;-91
2023/07/19 04:35:41;;;;;;;24.98;22.42;;;28.00;99.90;;;;;;4956321;28;20059;-90
2023/07/19 04:38:11;;;;;;;24.52;22.15;;;28.20;99.90;;;;;;4956250;29;20401;-90
2023/07/19 04:40:37;;;;;;;24.75;22.27;;;28.50;99.90;;;;;;4958245;28;20039;-91
2023/07/19 04:43:07;;;;;;;23.90;21.67;;;28.70;99.90;;;;;;4972319;28;20079;-91
2023/07/19 04:45:34;;;;;;;23.55;21.33;;;28.80;99.90;;;;;;4972012;28;20047;-90
2023/07/19 04:48:01;;;;;;;22.30;20.60;;;29.00;99.90;;;;;;4962555;28;20046;-91
2023/07/19 04:50:30;;;;;;;22.67;20.52;;;29.30;99.90;;;;;;4972063;28;20052;-91
2023/07/19 04:52:59;;;;;;;21.60;19.83;;;29.80;99.90;;;;;;4972148;28;20369;-92
2023/07/19 04:55:25;;;;;;;20.75;18.75;;;30.70;99.90;;;;;;4971876;28;20047;-90
2023/07/19 04:57:52;;;;;;;23.15;19.30;;;31.30;99.90;;;;;;4956056;28;20037;-91
2023/07/19 05:00:19;;;;;;;21.85;19.92;;;32.20;99.90;;;;;;4956359;29;20408;-91
2023/07/19 05:02:46;;;;;;;21.30;19.45;;;33.00;99.90;;;;;;4955910;29;20113;-92
2023/07/19 05:05:14;;;;;;;21.95;20.15;;;33.30;99.90;;;;;;4955743;29;20051;-91
2023/07/19 05:07:41;;;;;;;21.92;20.13;;;33.70;99.90;;;;;;4957884;28;20043;-91
2023/07/19 05:10:09;;;;;;;22.67;20.30;;;34.80;99.90;;;;;;4959675;28;20496;-92
2023/07/19 05:12:35;;;;;;;23.60;21.30;;;34.70;99.90;;;;;;4955579;28;20046;-89
2023/07/19 05:15:02;;;;;;;23.80;21.42;;;34.80;99.90;;;;;;4968911;28;20171;-89
2023/07/19 05:17:32;;;;;;;23.27;21.42;;;35.10;99.90;;;;;;4958993;28;20091;-89
2023/07/19 05:19:58;;;;;;;23.80;21.80;;;35.60;99.90;;;;;;4952154;28;20151;-89
2023/07/19 05:22:26;;;;;;;23.58;21.33;;;36.30;99.90;;;;;;4958866;28;20111;-89
2023/07/19 05:24:52;;;;;;;24.73;22.42;;;36.50;99.90;;;;;;4955417;29;20509;-90
2023/07/19 05:27:18;;;;;;;23.38;21.17;;;36.80;99.90;;;;;;4955282;29;20032;-89
2023/07/19 05:29:48;;;;;;;26.85;21.20;;;37.00;99.90;;;;;;4955322;29;20047;-90
2023/07/19 05:32:15;;;;;;;25.00;22.48;;;37.10;99.90;;;;;;4974667;28;20074;-90
2023/07/19 05:34:42;;;;;;;25.35;22.25;;;36.90;99.90;;;;;;4955380;28;20027;-89
2023/07/19 05:37:11;;;;;;;26.17;23.80;;;36.60;99.90;;;;;;4955259;29;20039;-89
2023/07/19 05:39:37;;;;;;;25.92;23.48;;;36.60;99.90;;;;;;4955125;29;20037;-89
2023/07/19 05:42:04;;;;;;;26.38;22.88;;;36.90;99.90;;;;;;4963156;28;20042;-89
2023/07/19 05:44:31;;;;;;;26.98;24.48;;;37.20;99.90;;;;;;4955141;29;20515;-90
2023/07/19 05:46:57;;;;;;;27.25;24.30;;;37.60;99.90;;;;;;4959152;28;20039;-91
2023/07/19 05:49:24;;;;;;;26.27;23.63;;;38.40;99.90;;;;;;4946555;28;20058;-90
2023/07/19 05:51:50;;;;;;;25.42;23.15;;;39.10;99.90;;;;;;4955010;28;20027;-88
2023/07/19 05:54:17;;;;;;;25.13;23.02;;;38.10;99.90;;;;;;4955067;28;20043;-90
2023/07/19 05:56:43;;;;;;;25.02;23.20;;;37.90;99.90;;;;;;4954813;29;20036;-89
2023/07/19 05:59:10;;;;;;;26.52;24.10;;;38.70;99.90;;;;;;4969975;28;20045;-89
2023/07/19 06:01:37;;;;;;;25.70;23.73;;;38.80;99.90;;;;;;4958175;28;20484;-90
2023/07/19 06:04:03;;;;;;;25.88;23.50;;;38.00;99.90;;;;;;4954837;28;20047;-89
2023/07/19 06:06:30;;;;;;;26.10;23.70;;;37.90;99.90;;;;;;4958999;28;20083;-89
2023/07/19 06:08:56;;;;;;;25.73;23.33;;;38.00;99.90;;;;;;4939056;29;20571;-89
2023/07/19 06:11:22;;;;;;;26.08;23.95;;;38.40;99.90;;;;;;4952992;29;20037;-90
2023/07/19 06:13:50;;;;;;;26.02;24.05;;;38.40;99.90;;;;;;4961588;28;20059;-91
2023/07/19 06:16:16;;;;;;;26.67;24.15;;;39.40;99.90;;;;;;4974627;28;20063;-90
2023/07/19 06:18:43;;;;;;;28.35;24.73;;;39.80;99.90;;;;;;4974229;28;20043;-90
2023/07/19 06:21:09;;;;;;;26.80;24.58;;;39.50;99.90;;;;;;4974414;28;20365;-89
2023/07/19 06:23:35;;;;;;;27.55;25.15;;;39.00;99.90;;;;;;4973956;28;20046;-88
2023/07/19 06:26:02;;;;;;;26.73;24.73;;;39.30;99.90;;;;;;4974095;28;20031;-89
2023/07/19 06:28:28;;;;;;;26.52;24.40;;;39.40;99.90;;;;;;4973901;28;20074;-90
2023/07/19 06:30:59;;;;;;;26.38;24.00;;;38.60;99.90;;;;;;4973981;28;20038;-90
2023/07/19 06:33:26;;;;;;;26.40;24.20;;;39.20;99.90;;;;;;4974052;28;20043;-89
2023/07/19 06:35:52;;;;;;;29.25;26.80;;;39.20;99.90;;;;;;4973973;28;20039;-90
2023/07/19 06:38:19;;;;;;;25.90;24.17;;;39.10;99.90;;;;;;4973903;28;20518;-90
2023/07/19 06:40:45;;;;;;;26.58;24.42;;;39.10;99.90;;;;;;4974134;28;20102;-92
2023/07/19 06:43:14;;;;;;;26.42;24.17;;;39.00;99.90;;;;;;4973844;28;20068;-89
2023/07/19 06:45:41;;;;;;;28.00;25.08;;;39.00;99.90;;;;;;4973828;28;20035;-90
2023/07/19 06:48:08;;;;;;;26.02;23.80;;;39.30;99.90;;;;;;4973736;28;20039;-91
2023/07/19 06:50:34;;;;;;;26.58;24.33;;;39.50;99.90;;;;;;4975822;28;20035;-90
2023/07/19 06:53:00;;;;;;;26.10;23.88;;;39.70;99.90;;;;;;4975265;28;20038;-92
2023/07/19 06:55:28;;;;;;;28.95;24.63;;;39.80;99.90;;;;;;4976294;28;20042;-90
2023/07/19 06:57:54;;;;;;;26.55;24.63;;;39.70;99.90;;;;;;4978227;28;20062;-90
2023/07/19 07:00:21;;;;;;;26.92;25.05;;;39.30;99.90;;;;;;4977159;28;20037;-90
2023/07/19 07:02:48;;;;;;;27.50;25.35;;;39.50;99.90;;;;;;4977434;28;20097;-89
2023/07/19 07:05:14;;;;;;;26.80;24.23;;;39.90;99.90;;;;;;4977285;28;20034;-90
2023/07/19 07:07:41;;;;;;;28.08;25.38;;;40.60;99.90;;;;;;4977156;28;20038;-91
2023/07/19 07:10:09;;;;;;;26.50;24.40;;;40.50;99.90;;;;;;4977033;28;20035;-90
2023/07/19 07:12:36;;;;;;;27.58;25.52;;;40.40;99.90;;;;;;4977134;28;20081;-90
2023/07/19 07:15:04;;;;;;;26.88;25.08;;;40.90;99.90;;;;;;4973484;28;20055;-89
2023/07/19 07:17:30;;;;;;;27.52;24.85;;;40.60;99.90;;;;;;4957632;28;20035;-89
2023/07/19 07:19:57;;;;;;;27.60;24.88;;;40.60;99.90;;;;;;4957654;28;20036;-94
2023/07/19 07:22:23;;;;;;;27.40;24.90;;;40.80;99.90;;;;;;4957682;28;20031;-91
2023/07/19 07:37:25;;;;;;;28.83;26.55;;;40.30;99.90;;;;;;5570396;23;20088;-94
2023/07/19 07:39:52;;;;;;;27.88;25.10;;;40.60;99.80;;;;;;5001150;28;20034;-93
2023/07/19 07:42:23;;;;;;;26.92;24.85;;;40.60;99.70;;;;;;5000929;28;20046;-94
2023/07/19 07:44:50;;;;;;;27.00;24.80;;;40.80;98.50;;;;;;5001266;28;20510;-92
2023/07/19 09:48:30;;;;;;;26.42;24.13;;;38.80;99.90;;;;;;5734157;22;20047;-90
2023/07/19 09:51:02;;;;;;;25.38;23.75;;;38.30;99.90;;;;;;4957074;29;20039;-91
2023/07/19 09:53:33;;;;;;;25.33;23.53;;;38.40;99.90;;;;;;4939545;28;20038;-90
2023/07/19 09:56:03;;;;;;;25.15;23.55;;;37.90;99.90;;;;;;4942074;28;20055;-89
2023/07/19 09:58:30;;;;;;;25.08;23.27;;;37.50;99.90;;;;;;4958013;28;20073;-92
2023/07/19 10:01:00;;;;;;;26.05;23.65;;;37.70;99.90;;;;;;4942420;28;20492;-91
2023/07/19 10:03:26;;;;;;;25.30;23.50;;;37.60;99.90;;;;;;4942237;28;20034;-92
2023/07/19 10:05:59;;;;;;;26.85;24.75;;;37.30;99.40;;;;;;4944787;28;20089;-89
2023/07/19 10:08:25;;;;;;;25.92;24.23;;;36.70;98.10;;;;;;4941765;28;20055;-85
2023/07/19 10:11:00;;;;;;;26.23;24.23;;;37.00;98.40;;;;;;4938617;29;20039;-84
2023/07/19 10:13:56;;;;;;;26.58;24.58;;;37.30;97.80;;;;;;4939820;29;20046;-89
2023/07/19 10:16:27;;;;;;;26.70;24.85;;;37.50;96.30;;;;;;4928571;29;20047;-88
2023/07/19 10:19:13;;;;;;;27.63;25.42;;;37.40;96.40;;;;;;4941601;28;20500;-89
2023/07/19 10:22:01;;;;;;;27.50;25.45;;;38.00;95.90;;;;;;4945062;28;20108;-89
2023/07/19 10:24:28;;;;;;;26.23;24.33;;;38.30;95.30;;;;;;4952201;28;20043;-88
2023/07/19 10:26:54;;;;;;;26.58;24.52;;;38.30;95.40;;;;;;4952597;28;20031;-88
2023/07/19 10:29:25;;;;;;;26.95;25.15;;;38.20;93.40;;;;;;4942939;29;20063;-87
2023/07/19 10:31:51;;;;;;;26.75;24.55;;;38.40;93.10;;;;;;4950484;28;20170;-87
2023/07/19 10:34:29;;;;;;;26.83;24.75;;;38.80;91.50;;;;;;4955578;28;20492;-88
2023/07/19 10:37:03;;;;;;;27.05;25.08;;;38.80;91.20;;;;;;4951911;29;20040;-87
2023/07/19 10:39:31;;;;;;;27.83;25.20;;;38.60;90.60;;;;;;4952323;29;20102;-87
2023/07/19 10:42:00;;;;;;;25.92;24.13;;;38.30;90.10;;;;;;4956073;28;20035;-88
2023/07/19 10:44:27;;;;;;;26.52;24.38;;;38.40;90.10;;;;;;4956852;28;20034;-88
2023/07/19 10:46:59;;;;;;;26.90;24.90;;;38.90;90.30;;;;;;4956189;28;20052;-88
2023/07/19 10:49:27;;;;;;;26.60;24.60;;;38.90;90.10;;;;;;4971711;28;20140;-88
2023/07/19 10:51:55;;;;;;;26.67;24.90;;;38.50;90.10;;;;;;4955515;28;20035;-89
2023/07/19 10:54:22;;;;;;;25.70;24.00;;;38.90;90.50;;;;;;4955862;28;20043;-87
2023/07/19 10:56:50;;;;;;;26.52;24.23;;;39.00;90.80;;;;;;4954281;28;20055;-87
2023/07/19 10:59:17;;;;;;;26.60;24.70;;;39.30;90.80;;;;;;4954450;28;20047;-87
2023/07/19 11:01:44;;;;;;;26.13;24.13;;;39.40;90.30;;;;;;4955047;28;20039;-88
2023/07/19 11:04:11;;;;;;;26.30;24.40;;;39.40;90.10;;;;;;4954625;28;20031;-87
2023/07/19 11:06:52;;;;;;;26.80;24.25;;;39.50;90.00;;;;;;4955146;28;20102;-88
2023/07/19 11:09:18;;;;;;;25.55;23.80;;;38.90;90.20;;;;;;4954449;28;20508;-88
2023/07/19 11:11:45;;;;;;;26.45;24.38;;;38.90;90.10;;;;;;4951915;28;20058;-88
2023/07/19 11:14:28;;;;;;;26.60;24.40;;;38.80;90.30;;;;;;4954227;28;20138;-88
2023/07/19 11:16:56;;;;;;;27.60;25.23;;;39.00;90.60;;;;;;4949981;29;20130;-91
2023/07/19 11:19:39;;;;;;;26.48;24.60;;;38.90;91.00;;;;;;4956226;28;20035;-90
2023/07/19 11:22:06;;;;;;;;;;;38.70;90.90;;;;;;4950044;29;20039;-92
2023/07/19 11:24:41;;;;;;;27.13;25.02;;;38.60;91.30;;;;;;4969379;28;19965;-90
2023/07/19 11:27:11;;;;;;;27.02;25.13;;;39.00;91.10;;;;;;4968285;28;20054;-90
2023/07/19 11:32:39;;;;;;;27.40;25.42;;;38.90;93.00;;;;;;5003971;28;20065;-91
2023/07/19 11:35:06;;;;;;;27.45;25.50;;;39.10;91.90;;;;;;4984019;28;20042;-90
2023/07/19 11:37:35;;;;;;;27.98;25.55;;;39.00;92.00;;;;;;4989961;28;20086;-92
2023/07/19 11:40:05;;;;;;;27.17;25.27;;;39.00;91.90;;;;;;4986135;28;20163;-92
2023/07/19 11:42:43;;;;;;;26.88;25.08;;;38.90;91.30;;;;;;4954104;28;20039;-91
2023/07/19 11:45:11;;;;;;;27.67;25.88;;;39.00;90.90;;;;;;4990288;28;20042;-91
2023/07/19 11:47:41;;;;;;;28.08;25.98;;;39.10;90.70;;;;;;4974463;28;20023;-90
2023/07/19 11:50:10;;;;;;;27.40;24.90;;;39.10;90.30;;;;;;4985164;28;20039;-91
2023/07/19 11:52:54;;;;;;;26.70;24.77;;;39.10;90.00;;;;;;4984568;28;20391;-91
2023/07/19 11:55:21;;;;;;;27.52;25.40;;;39.10;90.00;;;;;;4978751;28;20487;-90
2023/07/19 11:57:51;;;;;;;28.52;26.20;;;39.50;89.70;;;;;;4982418;28;20080;-91
2023/07/19 12:00:20;;;;;;;28.02;26.02;;;39.30;88.80;;;;;;4987732;28;20049;-89
2023/07/19 12:02:49;;;;;;;28.00;26.02;;;39.30;88.90;;;;;;4993079;28;20035;-89
2023/07/19 12:05:18;;;;;;;26.42;24.67;;;39.60;88.60;;;;;;4973269;28;20121;-90
2023/07/19 12:07:45;;;;;;;26.70;25.02;;;39.30;87.50;;;;;;5002874;28;20030;-89
2023/07/19 12:10:12;;;;;;;27.80;25.73;;;39.40;88.10;;;;;;4979909;28;20049;-93
2023/07/19 12:12:42;;;;;;;26.73;24.83;;;39.20;88.40;;;;;;5006085;28;20030;-92
2023/07/19 12:15:30;;;;;;;26.27;24.38;;;39.40;88.50;;;;;;5159985;23;20031;-94
2023/07/19 12:21:00;;;;;;;27.75;25.50;;;39.60;88.10;;;;;;5214433;23;20077;-93
2023/07/19 12:24:19;;;;;;;27.67;25.60;;;39.70;87.70;;;;;;4932805;29;20068;-93
2023/07/19 12:55:29;;;;;;;27.65;25.88;;;39.60;85.60;;;;;;5009811;23;20069;-93
2023/07/19 12:58:08;;;;;;;27.52;25.65;;;39.50;84.70;;;;;;5004996;28;20038;-93
2023/07/19 13:00:36;;;;;;;28.88;26.45;;;39.60;83.50;;;;;;4978033;28;20038;-94
2023/07/19 13:03:09;;;;;;;27.20;25.00;;;39.50;83.30;;;;;;4975330;28;20035;-92
2023/07/19 13:06:31;;;;;;;26.77;25.00;;;39.40;83.80;;;;;;4979224;28;20118;-94
2023/07/19 13:09:10;;;;;;;26.48;24.58;;;39.50;83.50;;;;;;5197234;23;20069;-92
2023/07/19 13:12:00;;;;;;;26.70;24.60;;;39.50;83.10;;;;;;5005004;28;20042;-92
2023/07/19 13:15:01;;;;;;;27.17;25.15;;;39.60;82.30;;;;;;4910053;29;20111;-94
2023/07/19 13:17:40;;;;;;;26.55;24.75;;;39.30;82.00;;;;;;5051351;23;20054;-93
2023/07/19 16:13:24;;;;;;;25.40;23.52;;;37.60;70.70;;;;;;1870530;23;20358;-93
2023/07/19 16:15:51;;;;;;;25.67;23.58;;;37.60;70.60;;;;;;4975134;28;20051;-92
2023/07/19 16:18:31;;;;;;;25.42;23.77;;;37.70;70.60;;;;;;4958206;29;20047;-93
2023/07/19 16:21:01;;;;;;;25.52;23.83;;;37.40;69.70;;;;;;4971872;28;20035;-93
2023/07/19 16:23:31;;;;;;;25.58;23.90;;;37.30;70.80;;;;;;4958246;29;20063;-93
2023/07/19 16:25:57;;;;;;;25.88;24.27;;;37.30;70.00;;;;;;4962966;28;20547;-91
2023/07/19 16:28:23;;;;;;;25.30;23.60;;;37.20;69.70;;;;;;4956284;29;20046;-91
2023/07/19 16:30:58;;;;;;;25.52;23.92;;;37.10;69.00;;;;;;4956385;29;20051;-92
2023/07/19 16:33:24;;;;;;;25.40;23.80;;;37.10;68.90;;;;;;4944508;29;20039;-92
2023/07/19 16:35:51;;;;;;;25.83;23.83;;;37.10;68.90;;;;;;4940679;29;20039;-91
2023/07/19 16:38:17;;;;;;;25.00;23.35;;;37.20;70.20;;;;;;4956659;29;20066;-93
2023/07/19 16:40:44;;;;;;;25.65;23.88;;;37.10;69.70;;;;;;4940173;29;20081;-94
2023/07/19 16:43:10;;;;;;;24.95;23.33;;;37.00;69.00;;;;;;4940170;29;20094;-92
2023/07/19 16:45:36;;;;;;;25.63;23.85;;;37.00;68.20;;;;;;4956313;29;20071;-93
2023/07/19 16:48:03;;;;;;;25.25;23.63;;;36.90;68.90;;;;;;4940047;28;20043;-92
2023/07/19 16:50:30;;;;;;;26.27;24.42;;;36.90;68.10;;;;;;4956016;29;20530;-92
2023/07/19 16:53:12;;;;;;;25.55;23.95;;;36.70;69.40;;;;;;4936865;29;20036;-92
2023/07/19 16:55:39;;;;;;;26.05;24.40;;;36.50;69.80;;;;;;4972198;28;20043;-93
2023/07/19 16:58:05;;;;;;;26.02;24.23;;;36.40;70.00;;;;;;4955697;29;20178;-93
2023/07/19 17:00:32;;;;;;;26.30;24.23;;;36.40;70.00;;;;;;4940275;29;20404;-91
2023/07/19 17:02:58;;;;;;;25.25;23.55;;;36.30;70.40;;;;;;4939672;29;20066;-92
2023/07/19 17:05:24;;;;;;;26.15;24.45;;;36.30;71.50;;;;;;4954292;29;20114;-93
2023/07/19 17:07:51;;;;;;;25.80;24.10;;;36.10;70.90;;;;;;4940041;28;20062;-94
2023/07/19 17:10:17;;;;;;;25.65;24.05;;;36.10;72.00;;;;;;4955831;28;20055;-93
2023/07/19 17:12:44;;;;;;;26.25;24.55;;;36.10;71.50;;;;;;4956085;29;20476;-91
2023/07/19 17:15:10;;;;;;;26.17;24.42;;;36.00;71.80;;;;;;4936295;29;20382;-93
2023/07/19 17:17:37;;;;;;;25.35;23.75;;;35.90;71.30;;;;;;4936352;29;20091;-94
2023/07/19 17:20:04;;;;;;;25.77;24.08;;;35.80;73.40;;;;;;4939543;29;20039;-92
2023/07/19 17:22:30;;;;;;;25.75;24.15;;;35.80;73.90;;;;;;4937125;29;20049;-92
2023/07/19 17:24:57;;;;;;;26.25;24.42;;;35.70;74.90;;;;;;4939982;29;20062;-93
2023/07/19 17:27:23;;;;;;;26.17;24.08;;;35.60;75.70;;;;;;4940282;29;20035;-92
2023/07/19 17:29:49;;;;;;;26.95;24.77;;;35.40;76.50;;;;;;4939541;29;20067;-94
2023/07/19 17:32:16;;;;;;;26.65;24.83;;;35.30;76.20;;;;;;4940007;29;20047;-91
2023/07/19 17:34:46;;;;;;;27.55;25.35;;;35.30;77.20;;;;;;4940808;29;20070;-92
2023/07/19 17:37:16;;;;;;;26.40;24.30;;;35.20;78.10;;;;;;4937056;29;20036;-94
2023/07/19 17:39:58;;;;;;;26.00;24.30;;;35.10;78.50;;;;;;4939698;29;20039;-92
2023/07/19 17:42:24;;;;;;;26.55;24.73;;;35.00;79.00;;;;;;4939845;29;20500;-92
2023/07/19 17:44:51;;;;;;;25.85;24.13;;;34.80;79.40;;;;;;4939456;29;20042;-92
2023/07/19 17:47:17;;;;;;;26.58;24.67;;;34.70;80.20;;;;;;4936392;29;20047;-92
2023/07/19 17:49:44;;;;;;;26.48;24.27;;;34.60;80.90;;;;;;4979015;23;20496;-92
2023/07/19 17:52:10;;;;;;;25.70;24.02;;;34.40;80.60;;;;;;4994058;28;20038;-93
2023/07/19 17:54:36;;;;;;;26.05;24.27;;;34.30;81.00;;;;;;4993938;28;20062;-90
2023/07/19 17:57:03;;;;;;;26.45;24.60;;;34.20;82.00;;;;;;4987828;28;20034;-91
2023/07/19 17:59:30;;;;;;;26.92;24.67;;;34.00;82.70;;;;;;4974057;28;20034;-91
2023/07/19 18:01:56;;;;;;;28.63;26.63;;;33.90;82.30;;;;;;4976521;28;20039;-91
2023/07/19 18:04:23;;;;;;;27.63;25.63;;;33.80;82.80;;;;;;4975742;28;20031;-92
2023/07/19 18:06:51;;;;;;;27.15;24.98;;;33.70;83.50;;;;;;4975729;28;20035;-91
2023/07/19 18:09:18;;;;;;;27.80;25.52;;;33.60;84.00;;;;;;5050932;23;20050;-92
2023/07/19 18:11:44;;;;;;;27.60;25.48;;;33.50;84.30;;;;;;4961563;28;20034;-94
2023/07/19 18:14:10;;;;;;;27.35;25.15;;;33.40;84.30;;;;;;4971509;28;20051;-91
2023/07/19 18:16:37;;;;;;;27.38;25.52;;;33.40;84.40;;;;;;4966908;28;20117;-93
2023/07/19 18:19:03;;;;;;;26.83;24.83;;;33.30;84.10;;;;;;4958322;28;20170;-92